createdAt,value
2019-05-19T00:00:33.708Z,37.07
2019-05-19T00:03:01.671Z,39.60
2019-05-19T00:05:28.648Z,41.30
2019-05-19T00:07:55.750Z,41.80
2019-05-19T00:10:22.746Z,43.93
2019-05-19T00:12:49.943Z,43.47
2019-05-19T00:15:17.737Z,43.17
2019-05-19T00:17:44.722Z,47.40
2019-05-19T00:20:14.544Z,48.87
2019-05-19T00:22:41.618Z,44.57
2019-05-19T00:25:46.052Z,47.97
2019-05-19T00:28:13.037Z,50.23
2019-05-19T00:30:40.026Z,43.43
2019-05-19T00:33:09.866Z,53.03
2019-05-19T00:35:36.868Z,51.83
2019-05-19T00:38:03.798Z,54.70
2019-05-19T00:40:30.763Z,50.87
2019-05-19T00:42:57.757Z,56.70
2019-05-19T00:45:24.816Z,53.60
2019-05-19T00:47:51.742Z,58.90
2019-05-19T00:50:18.829Z,52.13
2019-05-19T00:52:45.772Z,52.00
2019-05-19T00:55:12.712Z,59.30
2019-05-19T00:58:01.272Z,58.37
2019-05-19T01:00:28.384Z,57.47
2019-05-19T01:02:55.466Z,64.47
2019-05-19T01:05:22.450Z,61.93
2019-05-19T01:07:49.420Z,64.47
2019-05-19T01:10:16.684Z,64.37
2019-05-19T01:12:45.715Z,55.93
2019-05-19T01:15:12.971Z,59.17
2019-05-19T01:17:39.930Z,63.90
2019-05-19T01:20:07.425Z,63.03
2019-05-19T01:22:34.370Z,66.30
2019-05-19T01:25:01.388Z,69.27
2019-05-19T01:27:28.421Z,67.30
2019-05-19T01:29:55.376Z,74.93
2019-05-19T01:32:22.346Z,76.03
2019-05-19T01:34:49.340Z,73.43
2019-05-19T01:37:23.765Z,75.00
2019-05-19T01:39:50.888Z,70.20
2019-05-19T01:42:19.018Z,71.50
2019-05-19T01:44:45.971Z,73.40
2019-05-19T01:47:12.913Z,72.27
2019-05-19T01:49:39.894Z,73.40
2019-05-19T01:52:56.054Z,79.50
2019-05-19T01:55:23.219Z,72.03
2019-05-19T01:57:50.181Z,71.63
2019-05-19T02:00:19.336Z,72.20
2019-05-19T02:02:46.365Z,72.27
2019-05-19T02:05:13.720Z,62.03
2019-05-19T02:07:46.737Z,76.17
2019-05-19T02:10:13.821Z,76.43
2019-05-19T02:12:40.977Z,64.03
2019-05-19T02:15:09.461Z,65.23
2019-05-19T02:17:36.493Z,69.90
2019-05-19T02:20:04.158Z,65.60
2019-05-19T02:22:31.153Z,60.87
2019-05-19T02:24:58.090Z,55.80
2019-05-19T02:27:27.055Z,67.83
2019-05-19T02:29:54.047Z,62.10
2019-05-19T02:32:20.991Z,64.67
2019-05-19T02:34:47.978Z,66.17
2019-05-19T02:37:14.952Z,74.00
2019-05-19T02:39:41.910Z,79.60
2019-05-19T02:42:09.961Z,75.00
2019-05-19T02:44:38.537Z,79.93
2019-05-19T02:47:05.975Z,85.50
2019-05-19T02:49:40.007Z,90.50
2019-05-19T02:52:09.043Z,89.00
2019-05-19T02:54:36.478Z,74.70
2019-05-19T02:57:03.972Z,74.83
2019-05-19T02:59:32.850Z,77.80
2019-05-19T03:02:01.811Z,83.50
2019-05-19T03:04:28.793Z,81.47
2019-05-19T03:06:55.729Z,72.13
2019-05-19T03:09:22.741Z,71.27
2019-05-19T03:11:49.740Z,76.47
2019-05-19T03:14:16.666Z,83.33
2019-05-19T03:16:43.613Z,81.13
2019-05-19T03:19:10.602Z,64.77
2019-05-19T03:21:37.550Z,68.73
2019-05-19T03:24:04.511Z,88.77
2019-05-19T03:26:34.327Z,52.13
2019-05-19T03:29:01.270Z,73.20
2019-05-19T03:31:44.344Z,87.63
2019-05-19T03:34:11.863Z,78.47
2019-05-19T03:36:38.815Z,89.90
2019-05-19T03:39:06.189Z,97.87
2019-05-19T03:41:33.137Z,90.03
2019-05-19T03:44:00.122Z,81.13
2019-05-19T03:46:27.110Z,68.97
2019-05-19T03:48:54.108Z,67.20
2019-05-19T03:51:31.177Z,58.93
2019-05-19T03:53:49.918Z,58.33
2019-05-19T03:56:16.880Z,52.87
2019-05-19T03:58:43.851Z,56.63
2019-05-19T04:01:10.789Z,59.27
2019-05-19T04:03:56.125Z,61.87
2019-05-19T04:06:23.079Z,73.07
2019-05-19T04:08:50.025Z,70.90
2019-05-19T04:11:17.100Z,60.10
2019-05-19T04:13:47.328Z,60.97
2019-05-19T04:16:14.281Z,56.40
2019-05-19T04:18:41.281Z,64.50
2019-05-19T04:21:08.248Z,66.73
2019-05-19T04:23:35.187Z,77.23
2019-05-19T04:26:02.263Z,72.77
2019-05-19T04:28:30.339Z,74.77
2019-05-19T04:30:57.285Z,72.10
2019-05-19T04:33:24.254Z,74.40
2019-05-19T04:35:51.222Z,67.97
2019-05-19T04:38:18.210Z,81.53
2019-05-19T04:40:45.152Z,83.60
2019-05-19T04:43:12.089Z,92.60
2019-05-19T04:45:39.068Z,79.43
2019-05-19T04:48:09.365Z,80.30
2019-05-19T04:50:34.971Z,81.60
2019-05-19T04:53:01.947Z,85.87
2019-05-19T04:55:28.868Z,90.87
2019-05-19T04:57:55.847Z,98.30
2019-05-19T05:00:22.775Z,95.40
2019-05-19T05:02:50.087Z,92.67
2019-05-19T05:05:17.344Z,96.30
2019-05-19T05:07:44.270Z,101.20
2019-05-19T05:10:11.449Z,106.30
2019-05-19T05:12:38.412Z,102.50
2019-05-19T05:15:05.636Z,104.53
2019-05-19T05:17:32.602Z,107.53
2019-05-19T05:19:59.535Z,97.23
2019-05-19T05:22:26.524Z,99.43
2019-05-19T05:24:53.487Z,103.00
2019-05-19T05:27:20.456Z,95.60
2019-05-19T05:29:55.128Z,100.90
2019-05-19T05:32:25.293Z,101.03
2019-05-19T05:34:52.238Z,96.93
2019-05-19T05:37:19.265Z,100.07
2019-05-19T05:39:46.338Z,96.37
2019-05-19T05:42:13.295Z,97.60
2019-05-19T05:44:40.263Z,93.03
2019-05-19T05:47:07.197Z,91.77
2019-05-19T05:49:34.145Z,86.93
2019-05-19T05:52:01.176Z,88.00
2019-05-19T05:54:28.239Z,84.50
2019-05-19T05:56:57.535Z,84.53
2019-05-19T05:59:24.525Z,82.10
2019-05-19T06:01:51.489Z,76.77
2019-05-19T06:04:18.413Z,85.23
2019-05-19T06:06:45.957Z,81.47
2019-05-19T06:09:12.962Z,81.37
2019-05-19T06:11:39.927Z,80.10
2019-05-19T06:14:06.943Z,75.50
2019-05-19T06:16:33.895Z,80.93
2019-05-19T06:19:00.844Z,82.20
2019-05-19T06:21:27.842Z,80.83
2019-05-19T06:23:54.806Z,78.60
2019-05-19T06:26:21.761Z,77.17
2019-05-19T06:28:48.760Z,76.83
2019-05-19T06:31:15.803Z,78.07
2019-05-19T06:33:42.810Z,78.83
2019-05-19T06:36:09.797Z,80.50
2019-05-19T06:38:36.737Z,76.47
2019-05-19T06:41:03.695Z,79.10
2019-05-19T06:43:30.729Z,82.10
2019-05-19T06:45:57.720Z,79.27
2019-05-19T06:48:24.656Z,80.07
2019-05-19T06:50:51.645Z,78.43
2019-05-19T06:53:18.577Z,76.40
2019-05-19T06:55:45.542Z,76.33
2019-05-19T06:58:12.554Z,79.47
2019-05-19T07:00:39.494Z,75.03
2019-05-19T07:03:06.449Z,71.80
2019-05-19T07:05:33.462Z,74.30
2019-05-19T07:08:08.486Z,71.70
2019-05-19T07:10:35.485Z,75.93
2019-05-19T07:13:02.507Z,75.57
2019-05-19T07:15:29.449Z,75.00
2019-05-19T07:17:56.388Z,72.13
2019-05-19T07:20:54.135Z,70.27
2019-05-19T07:23:28.217Z,73.93
2019-05-19T07:25:51.761Z,72.77
2019-05-19T07:28:19.010Z,72.37
2019-05-19T07:30:45.959Z,76.23
2019-05-19T07:33:13.132Z,74.17
2019-05-19T07:35:40.138Z,69.93
2019-05-19T07:38:07.572Z,68.67
2019-05-19T07:40:35.698Z,69.80
2019-05-19T07:43:02.683Z,69.07
2019-05-19T07:45:29.651Z,62.80
2019-05-19T07:47:56.648Z,68.63
2019-05-19T07:50:23.638Z,67.37
2019-05-19T07:52:50.597Z,69.03
2019-05-19T07:55:17.657Z,67.17
2019-05-19T07:57:44.682Z,66.83
2019-05-19T08:00:13.437Z,65.87
2019-05-19T08:02:40.399Z,62.00
2019-05-19T08:05:07.505Z,60.23
2019-05-19T08:07:34.578Z,63.57
2019-05-19T08:10:01.666Z,63.97
2019-05-19T08:12:28.767Z,63.43
2019-05-19T08:14:57.050Z,60.53
2019-05-19T08:17:26.015Z,60.80
2019-05-19T08:19:52.910Z,59.13
2019-05-19T08:22:19.969Z,60.10
2019-05-19T08:24:46.957Z,62.90
2019-05-19T08:27:13.963Z,60.50
2019-05-19T08:29:40.915Z,57.17
2019-05-19T08:32:07.959Z,59.40
2019-05-19T08:34:34.969Z,59.90
2019-05-19T08:37:02.001Z,60.20
2019-05-19T08:39:29.064Z,59.60
2019-05-19T08:41:56.146Z,59.30
2019-05-19T08:44:23.114Z,59.73
2019-05-19T08:46:50.054Z,58.17
2019-05-19T08:49:17.042Z,56.30
2019-05-19T08:51:44.010Z,54.80
2019-05-19T08:54:15.075Z,53.73
2019-05-19T08:56:39.889Z,52.97
2019-05-19T08:59:06.846Z,55.07
2019-05-19T09:01:33.785Z,51.87
2019-05-19T09:04:00.771Z,42.40
2019-05-19T09:06:27.730Z,38.60
2019-05-19T09:08:54.704Z,41.33
2019-05-19T09:11:21.685Z,40.43
2019-05-19T09:13:48.775Z,42.27
2019-05-19T09:16:15.758Z,41.33
2019-05-19T09:18:43.973Z,40.33
2019-05-19T09:21:10.922Z,35.33
2019-05-19T09:23:37.906Z,39.60
2019-05-19T09:26:04.908Z,41.37
2019-05-19T09:28:31.857Z,40.63
2019-05-19T09:30:58.837Z,41.63
2019-05-19T09:33:25.867Z,40.97
2019-05-19T09:35:52.819Z,37.97
2019-05-19T09:38:38.338Z,35.77
2019-05-19T09:41:07.110Z,41.20
2019-05-19T09:44:01.216Z,38.27
2019-05-19T09:46:28.221Z,36.30
2019-05-19T09:49:13.745Z,38.23
2019-05-19T09:51:40.712Z,38.20
2019-05-19T09:54:07.777Z,37.07
2019-05-19T09:56:34.833Z,37.97
2019-05-19T09:59:01.776Z,35.83
2019-05-19T10:01:28.726Z,34.13
2019-05-19T10:03:55.734Z,36.90
2019-05-19T10:06:22.716Z,36.37
2019-05-19T10:09:10.588Z,31.77
2019-05-19T10:12:04.035Z,32.03
2019-05-19T10:14:31.089Z,30.50
2019-05-19T10:16:59.894Z,29.67
2019-05-19T10:19:26.862Z,30.13
2019-05-19T10:21:53.854Z,30.10
2019-05-19T10:24:22.912Z,30.57
2019-05-19T10:26:50.045Z,31.63
2019-05-19T10:29:17.068Z,31.03
2019-05-19T10:31:49.401Z,29.10
2019-05-19T10:34:16.492Z,28.80
2019-05-19T10:36:43.473Z,28.27
2019-05-19T10:39:10.680Z,30.30
2019-05-19T10:41:37.649Z,28.63
2019-05-19T10:44:06.746Z,25.87
2019-05-19T10:46:33.721Z,27.33
2019-05-19T10:49:00.716Z,28.57
2019-05-19T10:51:27.741Z,28.47
2019-05-19T10:53:54.712Z,25.40
2019-05-19T10:56:21.667Z,27.97
2019-05-19T10:58:48.926Z,28.37
2019-05-19T11:01:16.103Z,25.27
2019-05-19T11:03:43.060Z,21.07
2019-05-19T11:06:10.181Z,19.33
2019-05-19T11:08:37.313Z,16.60
2019-05-19T11:11:04.326Z,16.33
2019-05-19T11:13:31.329Z,15.83
2019-05-19T11:15:58.563Z,14.70
2019-05-19T11:18:25.581Z,16.17
2019-05-19T11:20:52.543Z,14.93
2019-05-19T11:23:19.552Z,11.57
2019-05-19T11:25:51.514Z,11.73
2019-05-19T11:28:15.421Z,7.80
2019-05-19T11:30:42.366Z,8.77
2019-05-19T11:33:09.329Z,9.27
2019-05-19T11:35:36.350Z,8.33
2019-05-19T11:38:03.310Z,10.47
2019-05-19T11:40:30.269Z,8.80
2019-05-19T11:42:57.294Z,10.30
2019-05-19T11:45:24.223Z,10.43
2019-05-19T11:47:51.256Z,10.50
2019-05-19T11:50:18.264Z,10.13
2019-05-19T11:52:45.267Z,11.50
2019-05-19T11:55:12.455Z,11.70
2019-05-19T11:57:39.396Z,11.47
2019-05-19T12:00:07.490Z,10.37
2019-05-19T12:02:34.488Z,10.20
2019-05-19T12:05:01.536Z,8.70
2019-05-19T12:07:29.666Z,9.20
2019-05-19T12:09:58.747Z,9.00
2019-05-19T12:12:25.726Z,8.23
2019-05-19T12:14:52.729Z,7.60
2019-05-19T12:17:21.278Z,7.87
2019-05-19T12:19:48.214Z,8.10
2019-05-19T12:22:15.298Z,8.00
2019-05-19T12:24:44.050Z,8.87
2019-05-19T12:27:12.348Z,8.80
2019-05-19T12:29:39.349Z,9.27
2019-05-19T12:32:06.317Z,8.37
2019-05-19T12:34:33.297Z,10.87
2019-05-19T12:37:00.328Z,10.53
2019-05-19T12:39:27.266Z,9.83
2019-05-19T12:41:54.223Z,10.20
2019-05-19T12:44:21.332Z,9.07
2019-05-19T12:46:48.314Z,9.03
2019-05-19T12:49:15.265Z,9.33
2019-05-19T12:51:42.204Z,9.43
2019-05-19T12:54:09.207Z,8.93
2019-05-19T12:56:39.686Z,9.97
2019-05-19T12:59:05.069Z,10.43
2019-05-19T13:01:32.080Z,10.40
2019-05-19T13:03:59.036Z,10.73
2019-05-19T13:06:26.061Z,11.37
2019-05-19T13:08:53.042Z,10.50
2019-05-19T13:11:19.987Z,10.90
2019-05-19T13:13:46.975Z,11.70
2019-05-19T13:16:14.002Z,9.90
2019-05-19T13:18:41.194Z,10.20
2019-05-19T13:21:08.127Z,10.07
2019-05-19T13:23:35.132Z,10.70
2019-05-19T13:26:03.820Z,10.80
2019-05-19T13:28:30.817Z,10.50
2019-05-19T13:30:57.787Z,10.17
2019-05-19T13:33:24.788Z,9.57
2019-05-19T13:35:51.830Z,10.00
2019-05-19T13:38:20.496Z,9.27
2019-05-19T13:40:47.481Z,8.93
2019-05-19T13:43:14.424Z,8.97
2019-05-19T13:45:41.409Z,7.83
2019-05-19T13:48:08.384Z,9.40
2019-05-19T13:50:35.317Z,9.83
2019-05-19T13:53:02.277Z,8.93
2019-05-19T13:55:29.301Z,6.97
2019-05-19T13:57:56.249Z,7.07
2019-05-19T14:00:23.212Z,8.03
2019-05-19T14:02:50.209Z,8.80
2019-05-19T14:05:17.146Z,7.43
2019-05-19T14:07:44.101Z,8.57
2019-05-19T14:10:12.183Z,7.90
2019-05-19T14:12:39.134Z,8.13
2019-05-19T14:15:06.844Z,8.60
2019-05-19T14:17:33.955Z,8.40
2019-05-19T14:20:02.200Z,8.93
2019-05-19T14:22:29.660Z,8.53
2019-05-19T14:24:56.665Z,8.93
2019-05-19T14:27:30.242Z,8.20
2019-05-19T14:29:52.502Z,8.87
2019-05-19T14:32:19.497Z,9.70
2019-05-19T14:34:46.460Z,10.70
2019-05-19T14:37:13.401Z,10.10
2019-05-19T14:39:40.394Z,10.77
2019-05-19T14:42:11.445Z,10.23
2019-05-19T14:44:38.414Z,10.70
2019-05-19T14:47:05.436Z,10.93
2019-05-19T14:49:32.372Z,11.20
2019-05-19T14:51:59.304Z,10.53
2019-05-19T14:54:26.425Z,10.83
2019-05-19T14:56:53.386Z,11.00
2019-05-19T14:59:20.348Z,10.43
2019-05-19T15:01:47.362Z,10.17
2019-05-19T15:04:14.346Z,10.97
2019-05-19T15:06:41.463Z,10.57
2019-05-19T15:09:08.528Z,10.77
2019-05-19T15:11:35.504Z,10.30
2019-05-19T15:14:05.529Z,10.67
2019-05-19T15:16:33.637Z,9.93
2019-05-19T15:19:00.609Z,11.33
2019-05-19T15:21:27.630Z,10.00
2019-05-19T15:23:54.576Z,10.27
2019-05-19T15:26:21.529Z,9.37
2019-05-19T15:28:48.633Z,8.73
2019-05-19T15:31:15.587Z,8.80
2019-05-19T15:33:42.613Z,9.30
2019-05-19T15:36:10.076Z,4.90
2019-05-19T15:38:40.091Z,3.37
2019-05-19T15:41:07.039Z,2.90
2019-05-19T15:43:34.023Z,2.53
2019-05-19T15:46:00.989Z,2.60
2019-05-19T15:48:28.248Z,2.50
2019-05-19T15:50:55.216Z,2.27
2019-05-19T15:53:23.261Z,2.17
2019-05-19T15:55:50.255Z,1.10
2019-05-19T15:58:17.409Z,1.57
2019-05-19T16:00:44.379Z,1.30
2019-05-19T16:03:11.386Z,1.60
2019-05-19T16:05:38.337Z,0.97
2019-05-19T16:08:05.286Z,1.50
2019-05-19T16:10:32.299Z,1.80
2019-05-19T16:12:59.291Z,1.83
2019-05-19T16:15:26.301Z,1.70
2019-05-19T16:17:53.429Z,2.20
2019-05-19T16:20:20.369Z,2.60
2019-05-19T16:22:47.315Z,2.57
2019-05-19T16:25:14.708Z,3.10
2019-05-19T16:27:41.718Z,3.93
2019-05-19T16:30:09.485Z,4.10
2019-05-19T16:32:36.617Z,3.93
2019-05-19T16:35:03.883Z,4.13
2019-05-19T16:37:30.872Z,5.00
2019-05-19T16:39:57.892Z,4.57
2019-05-19T16:42:24.856Z,4.67
2019-05-19T16:44:51.864Z,4.97
2019-05-19T16:47:18.848Z,5.73
2019-05-19T16:49:48.520Z,7.03
2019-05-19T16:52:15.525Z,7.83
2019-05-19T16:54:45.405Z,9.77
2019-05-19T16:57:12.397Z,12.73
2019-05-19T16:59:39.522Z,15.07
2019-05-19T17:02:06.542Z,15.80
2019-05-19T17:04:33.537Z,16.20
2019-05-19T17:07:03.142Z,16.43
2019-05-19T17:09:30.441Z,17.83
2019-05-19T17:11:57.381Z,17.50
2019-05-19T17:14:24.365Z,16.60
2019-05-19T17:16:51.458Z,18.23
2019-05-19T17:19:18.464Z,16.93
2019-05-19T17:21:45.445Z,17.07
2019-05-19T17:24:12.470Z,17.20
2019-05-19T17:26:39.613Z,15.70
2019-05-19T17:29:06.542Z,15.57
2019-05-19T17:31:33.563Z,17.10
2019-05-19T17:34:00.548Z,16.97
2019-05-19T17:36:27.655Z,15.73
2019-05-19T17:38:54.696Z,15.57
2019-05-19T17:41:21.710Z,13.90
2019-05-19T17:43:48.682Z,13.70
2019-05-19T17:46:15.724Z,13.77
2019-05-19T17:48:42.665Z,13.87
2019-05-19T17:51:09.626Z,15.27
2019-05-19T17:53:36.648Z,17.57
2019-05-19T17:56:03.593Z,19.83
2019-05-19T17:58:32.975Z,22.80
2019-05-19T18:01:00.005Z,22.87
2019-05-19T18:03:27.583Z,26.07
2019-05-19T18:05:54.680Z,28.43
2019-05-19T18:08:21.638Z,31.00
2019-05-19T18:10:48.605Z,30.83
2019-05-19T18:13:16.020Z,32.53
2019-05-19T18:15:45.488Z,31.80
2019-05-19T18:18:12.675Z,31.53
2019-05-19T18:20:39.667Z,32.47
2019-05-19T18:23:06.794Z,30.93
2019-05-19T18:25:34.919Z,31.90
2019-05-19T18:28:01.994Z,29.33
2019-05-19T18:30:28.971Z,29.03
2019-05-19T18:32:55.962Z,28.87
2019-05-19T18:35:23.003Z,28.40
2019-05-19T18:37:50.077Z,26.97
2019-05-19T18:40:17.263Z,27.43
2019-05-19T18:42:44.244Z,26.13
2019-05-19T18:45:11.620Z,27.50
2019-05-19T18:47:38.603Z,25.87
2019-05-19T18:50:06.065Z,27.83
2019-05-19T18:52:33.150Z,26.83
2019-05-19T18:55:00.134Z,28.40
2019-05-19T18:57:28.244Z,29.13
2019-05-19T18:59:55.252Z,28.27
2019-05-19T19:02:22.309Z,30.07
2019-05-19T19:04:49.307Z,31.03
2019-05-19T19:07:16.253Z,30.47
2019-05-19T19:09:45.653Z,31.13
2019-05-19T19:12:12.597Z,30.30
2019-05-19T19:14:39.613Z,32.17
2019-05-19T19:17:06.618Z,32.07
2019-05-19T19:19:33.577Z,33.13
2019-05-19T19:22:00.632Z,35.00
2019-05-19T19:24:27.607Z,34.90
2019-05-19T19:26:54.561Z,37.37
2019-05-19T19:29:21.615Z,35.87
2019-05-19T19:31:49.051Z,38.23
2019-05-19T19:34:16.161Z,35.90
2019-05-19T19:36:43.197Z,38.87
2019-05-19T19:39:11.307Z,37.70
2019-05-19T19:41:38.294Z,41.03
2019-05-19T19:44:05.384Z,44.17
2019-05-19T19:46:32.333Z,44.80
2019-05-19T19:48:59.316Z,46.07
2019-05-19T19:51:26.297Z,46.60
2019-05-19T19:53:54.383Z,48.53
2019-05-19T19:56:21.372Z,43.67
2019-05-19T19:58:48.517Z,41.17
2019-05-19T20:01:16.192Z,38.13
2019-05-19T20:03:43.190Z,36.33
2019-05-19T20:06:10.341Z,37.43
2019-05-19T20:08:37.312Z,35.37
2019-05-19T20:11:05.848Z,34.67
2019-05-19T20:13:34.687Z,34.63
2019-05-19T20:16:01.756Z,36.33
2019-05-19T20:18:28.867Z,36.60
2019-05-19T20:20:55.893Z,33.47
2019-05-19T20:23:22.905Z,35.43
2019-05-19T20:25:49.969Z,37.93
2019-05-19T20:28:17.050Z,35.90
2019-05-19T20:30:45.498Z,42.70
2019-05-19T20:33:12.580Z,43.53
2019-05-19T20:36:16.419Z,41.83
2019-05-19T20:38:43.414Z,41.97
2019-05-19T20:41:10.406Z,43.50
2019-05-19T20:43:40.253Z,45.27
2019-05-19T20:46:07.347Z,43.67
2019-05-19T20:48:34.357Z,45.67
2019-05-19T20:51:01.879Z,44.70
2019-05-19T20:53:28.832Z,45.53
2019-05-19T20:55:55.838Z,43.97
2019-05-19T20:58:22.857Z,45.63
2019-05-19T21:00:51.918Z,46.30
2019-05-19T21:03:19.167Z,46.50
2019-05-19T21:06:05.142Z,43.33
2019-05-19T21:08:33.565Z,44.50
2019-05-19T21:11:00.924Z,44.93
2019-05-19T21:13:29.146Z,43.57
2019-05-19T21:15:56.273Z,45.10
2019-05-19T21:18:23.380Z,45.80
2019-05-19T21:20:50.437Z,41.00
2019-05-19T21:23:17.423Z,37.07
2019-05-19T21:25:44.442Z,38.53
2019-05-19T21:28:11.484Z,41.60
2019-05-19T21:30:38.449Z,42.30
2019-05-19T21:33:05.429Z,40.90
2019-05-19T21:35:33.231Z,40.73
2019-05-19T21:38:00.220Z,40.60
2019-05-19T21:40:27.211Z,36.10
2019-05-19T21:42:54.206Z,34.13
2019-05-19T21:45:21.157Z,41.40
2019-05-19T21:47:48.152Z,37.00
2019-05-19T21:50:15.124Z,37.27
2019-05-19T21:52:42.099Z,31.10
2019-05-19T21:55:09.226Z,33.90
2019-05-19T21:57:36.178Z,38.93
2019-05-19T22:00:05.398Z,45.07
2019-05-19T22:02:32.401Z,45.47
2019-05-19T22:05:01.505Z,42.50
2019-05-19T22:07:51.292Z,42.20
2019-05-19T22:10:20.067Z,34.10
2019-05-19T22:12:47.039Z,30.03
2019-05-19T22:15:14.076Z,37.80
2019-05-19T22:17:41.102Z,26.53
2019-05-19T22:20:08.384Z,27.67
2019-05-19T22:22:35.384Z,31.10
2019-05-19T22:25:02.586Z,38.73
2019-05-19T22:27:29.570Z,38.63
2019-05-19T22:29:56.588Z,39.70
2019-05-19T22:32:23.542Z,46.70
2019-05-19T22:34:50.509Z,42.37
2019-05-19T22:37:17.526Z,41.00
2019-05-19T22:39:44.467Z,39.97
2019-05-19T22:42:11.428Z,39.53
2019-05-19T22:44:38.425Z,46.23
2019-05-19T22:47:05.387Z,47.07
2019-05-19T22:49:34.177Z,43.37
2019-05-19T22:52:01.189Z,49.47
2019-05-19T22:54:28.137Z,47.50
2019-05-19T22:56:55.130Z,44.50
2019-05-19T22:59:22.118Z,39.30
2019-05-19T23:01:51.834Z,51.67
2019-05-19T23:04:19.840Z,45.27
2019-05-19T23:06:46.789Z,48.43
2019-05-19T23:09:13.773Z,51.20
2019-05-19T23:11:40.849Z,58.37
2019-05-19T23:14:07.959Z,54.00
2019-05-19T23:16:34.983Z,57.53
2019-05-19T23:19:01.996Z,59.97
2019-05-19T23:21:35.242Z,80.33
2019-05-19T23:24:51.143Z,89.80
2019-05-19T23:27:18.102Z,100.87
2019-05-19T23:29:45.050Z,106.03
2019-05-19T23:32:12.082Z,111.43
2019-05-19T23:34:39.042Z,103.47
2019-05-19T23:37:06.004Z,112.60
2019-05-19T23:39:34.124Z,113.20
2019-05-19T23:42:01.092Z,115.53
2019-05-19T23:44:28.046Z,112.07
2019-05-19T23:46:55.045Z,115.13
2019-05-19T23:49:23.115Z,110.40
2019-05-19T23:51:50.164Z,108.63
2019-05-19T23:54:24.861Z,104.40
2019-05-19T23:56:51.810Z,107.73
2019-05-19T23:59:18.777Z,103.00
